Time;durP1;ratioP1;P1;durP2;ratioP2;P2;SDS_P1;SDS_P2;PMS_P1;PMS_P2;Temp;Humidity;BMP_temperature;BMP_pressure;BME280_temperature;BME280_humidity;BME280_pressure;Samples;Min_cycle;Max_cycle;Signal;HPM_P1;HPM_P2
2022/09/22 00:00:54;;;;;;;;;;;14.90;62.60;;;;;;5016743;28;19948;-84
2022/09/22 00:03:20;;;;;;;;;;;14.80;62.60;;;;;;5018193;28;19920;-85
2022/09/22 00:05:45;;;;;;;;;;;14.80;62.60;;;;;;5020893;28;20376;-84
2022/09/22 00:08:11;;;;;;;;;;;14.70;62.50;;;;;;5017938;28;19933;-85
2022/09/22 00:10:36;;;;;;;;;;;14.70;62.60;;;;;;5000267;28;19913;-84
2022/09/22 00:13:02;;;;;;;;;;;14.70;62.60;;;;;;5016794;28;20032;-85
2022/09/22 00:15:29;;;;;;;;;;;14.70;62.60;;;;;;5017185;28;19925;-84
2022/09/22 00:17:55;;;;;;;;;;;14.70;62.60;;;;;;5000249;28;19941;-84
2022/09/22 00:20:20;;;;;;;;;;;14.60;62.60;;;;;;5016350;28;20012;-84
2022/09/22 00:22:50;;;;;;;;;;;14.60;62.70;;;;;;5000086;28;19955;-82
2022/09/22 00:25:15;;;;;;;;;;;14.60;62.70;;;;;;5016294;28;19945;-84
2022/09/22 00:27:41;;;;;;;;;;;14.60;62.70;;;;;;5016464;28;20393;-84
2022/09/22 00:30:07;;;;;;;;;;;14.50;62.70;;;;;;5016163;28;20012;-85
2022/09/22 00:32:36;;;;;;;;;;;14.50;62.70;;;;;;5016871;28;19971;-85
2022/09/22 00:35:02;;;;;;;;;;;14.50;62.70;;;;;;5016714;28;19913;-84
2022/09/22 00:37:28;;;;;;;;;;;14.50;62.80;;;;;;5015484;28;19926;-84
2022/09/22 00:39:53;;;;;;;;;;;14.40;62.70;;;;;;5015771;28;19914;-84
2022/09/22 00:42:19;;;;;;;;;;;14.40;62.70;;;;;;5015761;28;19953;-85
2022/09/22 00:44:45;;;;;;;;;;;14.40;62.80;;;;;;5016394;28;20022;-84
2022/09/22 00:47:11;;;;;;;;;;;14.40;62.80;;;;;;5015835;28;19999;-85
2022/09/22 00:49:36;;;;;;;;;;;14.30;62.70;;;;;;5016424;28;20072;-84
2022/09/22 00:52:02;;;;;;;;;;;14.30;62.80;;;;;;5016763;28;20259;-84
2022/09/22 00:54:28;;;;;;;;;;;14.30;62.80;;;;;;5015825;28;20368;-85
2022/09/22 00:56:59;;;;;;;;;;;14.30;62.90;;;;;;5016859;28;19921;-84
2022/09/22 00:59:25;;;;;;;;;;;14.30;62.90;;;;;;5016627;28;19913;-84
2022/09/22 01:01:51;;;;;;;;;;;14.20;62.80;;;;;;5015667;28;19959;-85
2022/09/22 01:04:17;;;;;;;;;;;14.30;62.90;;;;;;5015508;28;19918;-84
2022/09/22 01:06:44;;;;;;;;;;;14.20;62.90;;;;;;5016002;28;19919;-84
2022/09/22 01:09:10;;;;;;;;;;;14.20;62.90;;;;;;5015445;28;19960;-83
2022/09/22 01:11:36;;;;;;;;;;;14.20;62.90;;;;;;5016544;28;19909;-85
2022/09/22 01:14:05;;;;;;;;;;;14.10;62.80;;;;;;5015348;28;19917;-84
2022/09/22 01:16:36;;;;;;;;;;;14.20;62.90;;;;;;5014759;28;19929;-84
2022/09/22 01:19:21;;;;;;;;;;;14.10;62.90;;;;;;5015225;28;19913;-84
2022/09/22 01:21:56;;;;;;;;;;;14.10;62.90;;;;;;5015284;28;19921;-84
2022/09/22 01:24:32;;;;;;;;;;;14.10;62.90;;;;;;5016277;28;19991;-85
2022/09/22 01:26:58;;;;;;;;;;;14.00;62.90;;;;;;5018604;28;19921;-84
2022/09/22 01:29:30;;;;;;;;;;;14.00;62.90;;;;;;5020447;28;19909;-85
2022/09/22 01:32:02;;;;;;;;;;;14.00;62.90;;;;;;5019250;28;19920;-85
2022/09/22 01:34:31;;;;;;;;;;;14.00;62.90;;;;;;5023888;28;20052;-84
2022/09/22 01:37:03;;;;;;;;;;;13.90;62.90;;;;;;5023322;28;19910;-84
2022/09/22 01:39:40;;;;;;;;;;;13.90;62.90;;;;;;5000358;28;19984;-83
2022/09/22 01:42:12;;;;;;;;;;;13.90;63.00;;;;;;5016124;28;19921;-84
2022/09/22 01:44:48;;;;;;;;;;;13.90;63.00;;;;;;5015668;28;19921;-84
2022/09/22 01:47:20;;;;;;;;;;;13.90;63.00;;;;;;5016005;28;19914;-84
2022/09/22 01:49:48;;;;;;;;;;;13.80;63.00;;;;;;5014080;28;20387;-85
2022/09/22 01:52:22;;;;;;;;;;;13.90;63.10;;;;;;5015987;28;19910;-85
2022/09/22 01:54:59;;;;;;;;;;;13.80;63.00;;;;;;5014535;28;19937;-84
2022/09/22 01:57:29;;;;;;;;;;;13.80;63.10;;;;;;4998463;28;19920;-84
2022/09/22 01:59:58;;;;;;;;;;;13.80;63.10;;;;;;5014473;28;19914;-84
2022/09/22 02:02:27;;;;;;;;;;;13.80;63.10;;;;;;4998190;28;20358;-85
2022/09/22 02:04:55;;;;;;;;;;;13.70;63.00;;;;;;5013981;28;19920;-85
2022/09/22 02:07:25;;;;;;;;;;;13.70;63.10;;;;;;5016580;28;19913;-84
2022/09/22 02:09:50;;;;;;;;;;;13.70;63.10;;;;;;5014253;28;19936;-83
2022/09/22 02:12:17;;;;;;;;;;;13.70;63.10;;;;;;5014370;28;19967;-84
2022/09/22 02:14:44;;;;;;;;;;;13.70;63.10;;;;;;5013999;28;19925;-85
2022/09/22 02:17:10;;;;;;;;;;;13.60;63.10;;;;;;5014270;28;19913;-84
2022/09/22 02:19:36;;;;;;;;;;;13.60;63.10;;;;;;4997794;28;19920;-85
2022/09/22 02:22:03;;;;;;;;;;;13.60;63.10;;;;;;5014195;28;19914;-83
2022/09/22 02:24:33;;;;;;;;;;;13.60;63.10;;;;;;4997672;28;19921;-84
2022/09/22 02:27:01;;;;;;;;;;;13.60;63.10;;;;;;5014384;28;20362;-84
2022/09/22 02:29:29;;;;;;;;;;;13.60;63.20;;;;;;5014251;28;20408;-84
2022/09/22 02:31:56;;;;;;;;;;;13.50;63.10;;;;;;5014930;28;19914;-85
2022/09/22 02:34:22;;;;;;;;;;;13.50;63.20;;;;;;5013949;28;19909;-84
2022/09/22 02:37:10;;;;;;;;;;;13.50;63.20;;;;;;4997305;28;19924;-82
2022/09/22 02:39:41;;;;;;;;;;;13.50;63.20;;;;;;5015007;28;20284;-83
2022/09/22 02:42:25;;;;;;;;;;;13.40;63.20;;;;;;5013819;28;20477;-83
2022/09/22 02:44:54;;;;;;;;;;;13.40;63.20;;;;;;5013868;28;19913;-83
2022/09/22 02:47:22;;;;;;;;;;;13.40;63.20;;;;;;5013513;28;19910;-84
2022/09/22 02:49:48;;;;;;;;;;;13.40;63.20;;;;;;5013758;28;19936;-83
2022/09/22 02:52:17;;;;;;;;;;;13.40;63.30;;;;;;5014250;28;20362;-87
2022/09/22 02:54:43;;;;;;;;;;;13.40;63.30;;;;;;5014234;28;19976;-85
2022/09/22 02:57:09;;;;;;;;;;;13.30;63.20;;;;;;4981040;28;19913;-86
2022/09/22 02:59:34;;;;;;;;;;;13.30;63.30;;;;;;5015232;28;20370;-87
2022/09/22 03:02:00;;;;;;;;;;;13.30;63.20;;;;;;4997618;28;19937;-87
2022/09/22 03:04:26;;;;;;;;;;;13.30;63.30;;;;;;5014391;28;19928;-87
2022/09/22 03:06:51;;;;;;;;;;;13.20;63.20;;;;;;5013832;28;19949;-87
2022/09/22 03:09:17;;;;;;;;;;;13.20;63.30;;;;;;4998109;28;19920;-87
2022/09/22 03:11:43;;;;;;;;;;;13.20;63.30;;;;;;4997758;28;20274;-88
2022/09/22 03:14:08;;;;;;;;;;;13.20;63.30;;;;;;5013640;28;20459;-87
2022/09/22 03:16:34;;;;;;;;;;;13.20;63.30;;;;;;5013830;28;20338;-86
2022/09/22 03:19:00;;;;;;;;;;;13.20;63.30;;;;;;5013349;28;19967;-87
2022/09/22 03:21:25;;;;;;;;;;;13.20;63.30;;;;;;5014753;28;20048;-87
2022/09/22 03:23:51;;;;;;;;;;;13.20;63.40;;;;;;5015297;28;20277;-87
2022/09/22 03:26:17;;;;;;;;;;;13.10;63.30;;;;;;5014684;28;19910;-86
2022/09/22 03:28:43;;;;;;;;;;;13.10;63.30;;;;;;5014019;28;19921;-87
2022/09/22 03:31:09;;;;;;;;;;;13.10;63.40;;;;;;4998236;28;19921;-87
2022/09/22 03:33:35;;;;;;;;;;;13.10;63.40;;;;;;4997805;28;19913;-87
2022/09/22 03:36:01;;;;;;;;;;;13.10;63.40;;;;;;5014096;28;19922;-87
2022/09/22 03:38:26;;;;;;;;;;;13.10;63.40;;;;;;5014141;28;19913;-87
2022/09/22 03:40:52;;;;;;;;;;;13.00;63.40;;;;;;5014615;28;19937;-87
2022/09/22 03:43:18;;;;;;;;;;;13.00;63.40;;;;;;4997836;28;19918;-86
2022/09/22 03:45:44;;;;;;;;;;;13.00;63.40;;;;;;5013676;28;19953;-86
2022/09/22 03:48:10;;;;;;;;;;;13.00;63.40;;;;;;5013672;28;20377;-87
2022/09/22 03:50:35;;;;;;;;;;;13.00;63.50;;;;;;4980730;28;20311;-86
2022/09/22 03:53:01;;;;;;;;;;;12.90;63.40;;;;;;5013362;28;19968;-87
2022/09/22 03:55:27;;;;;;;;;;;12.90;63.40;;;;;;4980751;28;20008;-87
2022/09/22 03:57:52;;;;;;;;;;;12.90;63.40;;;;;;5013885;28;20601;-87
2022/09/22 04:00:18;;;;;;;;;;;12.90;63.50;;;;;;5013704;28;19913;-86
2022/09/22 04:02:44;;;;;;;;;;;12.90;63.50;;;;;;5013863;28;19925;-86
2022/09/22 04:05:09;;;;;;;;;;;12.90;63.50;;;;;;5014167;28;20334;-86
2022/09/22 04:07:35;;;;;;;;;;;12.80;63.40;;;;;;4997459;28;19925;-86
2022/09/22 04:10:01;;;;;;;;;;;12.80;63.50;;;;;;5014452;28;19932;-86
2022/09/22 04:12:27;;;;;;;;;;;12.80;63.50;;;;;;4997518;28;19964;-87
2022/09/22 04:14:52;;;;;;;;;;;12.80;63.50;;;;;;5018040;28;19922;-87
2022/09/22 04:17:19;;;;;;;;;;;12.80;63.50;;;;;;5016744;28;19914;-87
2022/09/22 04:19:45;;;;;;;;;;;12.80;63.50;;;;;;5017056;28;20377;-87
2022/09/22 04:22:11;;;;;;;;;;;12.80;63.60;;;;;;5017017;28;20347;-87
2022/09/22 04:24:37;;;;;;;;;;;12.70;63.50;;;;;;5018254;28;19909;-87
2022/09/22 04:27:03;;;;;;;;;;;12.70;63.60;;;;;;5017814;28;20008;-87
2022/09/22 04:29:28;;;;;;;;;;;12.70;63.60;;;;;;5017941;28;20255;-87
2022/09/22 04:31:54;;;;;;;;;;;12.70;63.60;;;;;;5016345;28;20254;-87
2022/09/22 04:34:20;;;;;;;;;;;12.70;63.60;;;;;;5017138;28;19921;-88
2022/09/22 04:36:45;;;;;;;;;;;12.60;63.60;;;;;;5000122;28;20278;-87
2022/09/22 04:39:11;;;;;;;;;;;12.60;63.60;;;;;;5016592;28;19964;-87
2022/09/22 04:41:37;;;;;;;;;;;12.60;63.60;;;;;;5016200;28;20374;-87
2022/09/22 04:44:03;;;;;;;;;;;12.60;63.60;;;;;;5016499;28;20086;-86
2022/09/22 04:46:28;;;;;;;;;;;12.60;63.60;;;;;;5016177;28;19968;-86
2022/09/22 04:48:54;;;;;;;;;;;12.60;63.60;;;;;;5015883;28;20370;-87
2022/09/22 04:51:20;;;;;;;;;;;12.60;63.60;;;;;;5016570;28;20445;-86
2022/09/22 04:53:45;;;;;;;;;;;12.60;63.60;;;;;;5000072;28;20024;-86
2022/09/22 04:56:11;;;;;;;;;;;12.50;63.60;;;;;;5016862;28;19921;-87
2022/09/22 04:58:36;;;;;;;;;;;12.50;63.60;;;;;;4984273;28;19925;-85
2022/09/22 05:01:03;;;;;;;;;;;12.50;63.60;;;;;;5016625;28;19924;-86
2022/09/22 05:03:29;;;;;;;;;;;12.50;64.30;;;;;;5017078;28;19917;-87
2022/09/22 05:05:54;;;;;;;;;;;12.50;63.60;;;;;;5016181;28;20258;-86
2022/09/22 05:08:20;;;;;;;;;;;12.50;63.60;;;;;;5015962;28;19968;-87
2022/09/22 05:10:46;;;;;;;;;;;12.50;63.70;;;;;;5016483;28;19921;-86
2022/09/22 05:13:12;;;;;;;;;;;12.40;63.60;;;;;;5016076;28;19921;-88
2022/09/22 05:15:38;;;;;;;;;;;12.40;63.60;;;;;;4999052;28;19932;-88
2022/09/22 05:18:04;;;;;;;;;;;12.40;63.70;;;;;;5016178;28;19937;-87
2022/09/22 05:20:30;;;;;;;;;;;12.40;63.70;;;;;;5016020;28;19921;-87
2022/09/22 05:22:55;;;;;;;;;;;12.40;63.70;;;;;;5015997;28;19960;-87
2022/09/22 05:25:21;;;;;;;;;;;12.40;63.70;;;;;;5014908;28;19918;-86
2022/09/22 05:27:51;;;;;;;;;;;12.40;63.70;;;;;;5015837;28;19936;-86
2022/09/22 05:30:17;;;;;;;;;;;12.40;63.70;;;;;;5015654;28;19921;-85
2022/09/22 05:32:43;;;;;;;;;;;12.40;63.70;;;;;;4999647;28;19915;-88
2022/09/22 05:35:13;;;;;;;;;;;12.30;63.70;;;;;;5015255;28;19917;-88
2022/09/22 05:37:41;;;;;;;;;;;12.30;63.70;;;;;;4999104;28;20366;-87
2022/09/22 05:40:07;;;;;;;;;;;12.30;63.70;;;;;;5015462;28;19914;-87
2022/09/22 05:42:33;;;;;;;;;;;12.30;63.80;;;;;;5016781;28;19917;-86
2022/09/22 05:44:59;;;;;;;;;;;12.30;63.80;;;;;;5015019;28;19914;-86
2022/09/22 05:47:24;;;;;;;;;;;12.30;63.80;;;;;;4998619;28;19914;-85
2022/09/22 05:49:50;;;;;;;;;;;12.30;63.80;;;;;;5015539;28;20385;-86
2022/09/22 05:52:16;;;;;;;;;;;12.20;63.80;;;;;;5015353;28;19949;-86
2022/09/22 05:54:41;;;;;;;;;;;12.20;63.80;;;;;;4998282;28;19932;-84
2022/09/22 05:57:07;;;;;;;;;;;12.20;63.80;;;;;;4981964;28;19918;-84
2022/09/22 05:59:32;;;;;;;;;;;12.20;63.80;;;;;;4998707;28;19929;-87
2022/09/22 06:01:58;;;;;;;;;;;12.20;63.80;;;;;;4998991;28;20254;-87
2022/09/22 06:04:24;;;;;;;;;;;12.20;63.80;;;;;;5015202;28;19917;-88
2022/09/22 06:06:49;;;;;;;;;;;12.20;63.90;;;;;;4999051;28;19914;-86
2022/09/22 06:09:15;;;;;;;;;;;12.20;63.90;;;;;;4999124;28;19968;-86
2022/09/22 06:11:41;;;;;;;;;;;12.10;63.90;;;;;;4999002;28;20317;-86
2022/09/22 06:14:06;;;;;;;;;;;12.20;63.90;;;;;;4998231;28;20378;-86
2022/09/22 06:16:32;;;;;;;;;;;12.10;63.90;;;;;;4983297;28;19926;-86
2022/09/22 06:18:58;;;;;;;;;;;12.10;63.90;;;;;;4998714;28;19910;-87
2022/09/22 06:21:24;;;;;;;;;;;12.10;63.90;;;;;;4982258;28;20394;-88
2022/09/22 06:23:50;;;;;;;;;;;12.10;63.90;;;;;;5000075;28;20432;-86
2022/09/22 06:26:16;;;;;;;;;;;12.10;63.90;;;;;;4984476;28;19918;-86
2022/09/22 06:28:42;;;;;;;;;;;12.10;64.00;;;;;;4999531;28;19920;-88
2022/09/22 06:31:07;;;;;;;;;;;12.10;64.00;;;;;;4999403;28;20012;-87
2022/09/22 06:33:34;;;;;;;;;;;12.10;64.00;;;;;;5015907;28;19964;-89
2022/09/22 06:36:00;;;;;;;;;;;12.10;64.00;;;;;;4998271;28;19936;-86
2022/09/22 06:38:26;;;;;;;;;;;12.10;64.10;;;;;;5016236;28;19917;-88
2022/09/22 06:40:57;;;;;;;;;;;12.10;64.00;;;;;;4998287;28;20087;-88
2022/09/22 06:43:22;;;;;;;;;;;12.10;64.10;;;;;;5015057;28;19960;-89
2022/09/22 06:45:51;;;;;;;;;;;12.10;64.10;;;;;;5015528;28;19914;-89
2022/09/22 06:48:17;;;;;;;;;;;12.10;64.10;;;;;;4982714;28;20335;-90
2022/09/22 06:50:47;;;;;;;;;;;12.10;64.10;;;;;;5014965;28;19917;-89
2022/09/22 06:53:13;;;;;;;;;;;12.10;64.10;;;;;;5014441;28;19967;-84
2022/09/22 06:55:40;;;;;;;;;;;12.10;64.10;;;;;;5014059;28;19926;-87
2022/09/22 06:58:06;;;;;;;;;;;12.10;64.10;;;;;;4981714;28;19924;-87
2022/09/22 07:00:31;;;;;;;;;;;12.10;64.10;;;;;;5014312;28;20341;-85
2022/09/22 07:03:12;;;;;;;;;;;12.10;64.10;;;;;;5014929;28;19909;-89
2022/09/22 07:05:38;;;;;;;;;;;12.10;64.20;;;;;;5013718;28;19914;-89
2022/09/22 07:08:07;;;;;;;;;;;12.10;64.10;;;;;;4981767;28;19924;-89
2022/09/22 07:10:36;;;;;;;;;;;12.20;64.20;;;;;;5014598;28;20445;-87
2022/09/22 07:13:04;;;;;;;;;;;12.20;64.20;;;;;;4997291;28;19918;-86
2022/09/22 07:15:30;;;;;;;;;;;12.20;64.20;;;;;;5013852;28;19918;-86
2022/09/22 07:17:56;;;;;;;;;;;12.20;64.30;;;;;;5013709;28;19913;-86
2022/09/22 07:20:22;;;;;;;;;;;12.20;64.20;;;;;;4998182;28;20369;-86
2022/09/22 07:22:47;;;;;;;;;;;12.20;64.20;;;;;;4981154;28;19917;-87
2022/09/22 07:25:15;;;;;;;;;;;12.20;64.20;;;;;;5015003;28;19964;-87
2022/09/22 07:27:40;;;;;;;;;;;12.20;64.30;;;;;;5014705;28;19909;-87
2022/09/22 07:30:07;;;;;;;;;;;12.20;64.20;;;;;;4997330;28;19976;-87
2022/09/22 07:32:34;;;;;;;;;;;12.20;64.20;;;;;;5014915;28;19918;-87
2022/09/22 07:35:00;;;;;;;;;;;12.20;64.20;;;;;;5014807;28;19932;-86
2022/09/22 07:37:28;;;;;;;;;;;12.30;64.30;;;;;;5013751;28;19913;-86
2022/09/22 07:39:54;;;;;;;;;;;12.30;64.30;;;;;;5014857;28;19924;-85
2022/09/22 07:42:20;;;;;;;;;;;12.30;64.30;;;;;;4997295;28;20358;-87
2022/09/22 07:50:16;;;;;;;;;;;12.30;64.30;;;;;;5004441;28;19924;-89
2022/09/22 07:52:42;;;;;;;;;;;12.30;64.50;;;;;;5017784;28;19914;-89
2022/09/22 07:55:08;;;;;;;;;;;12.30;64.60;;;;;;5020009;28;19980;-87
2022/09/22 07:57:33;;;;;;;;;;;12.40;64.60;;;;;;5017849;28;20011;-85
2022/09/22 07:59:59;;;;;;;;;;;12.40;64.60;;;;;;5001000;28;19913;-84
2022/09/22 08:02:27;;;;;;;;;;;12.40;64.60;;;;;;5017633;28;19913;-86
2022/09/22 08:04:55;;;;;;;;;;;12.40;64.60;;;;;;5018021;28;19917;-90
2022/09/22 08:07:20;;;;;;;;;;;12.40;64.60;;;;;;5002839;28;19914;-88
2022/09/22 08:09:46;;;;;;;;;;;12.50;64.70;;;;;;5002023;28;19917;-89
2022/09/22 08:12:12;;;;;;;;;;;12.50;64.70;;;;;;5018710;28;19964;-86
2022/09/22 08:14:38;;;;;;;;;;;12.50;64.70;;;;;;5001560;28;19917;-84
2022/09/22 08:17:06;;;;;;;;;;;12.50;64.70;;;;;;5018708;28;19932;-85
2022/09/22 08:19:32;;;;;;;;;;;12.60;64.70;;;;;;5002700;28;19917;-91
2022/09/22 08:21:58;;;;;;;;;;;12.50;64.70;;;;;;5018262;28;19905;-89
2022/09/22 08:24:23;;;;;;;;;;;12.50;64.70;;;;;;5002243;28;19921;-86
2022/09/22 08:26:51;;;;;;;;;;;12.60;64.70;;;;;;5020363;28;19964;-88
2022/09/22 08:29:16;;;;;;;;;;;12.60;64.70;;;;;;5016862;28;19918;-83
2022/09/22 08:31:44;;;;;;;;;;;12.60;64.70;;;;;;5016120;28;20266;-86
2022/09/22 08:34:11;;;;;;;;;;;12.70;64.80;;;;;;5017992;28;19921;-86
2022/09/22 08:36:37;;;;;;;;;;;12.70;64.80;;;;;;5016712;28;19924;-87
2022/09/22 08:39:03;;;;;;;;;;;12.70;65.40;;;;;;4984063;28;19918;-86
2022/09/22 08:41:28;;;;;;;;;;;12.70;64.80;;;;;;5017911;28;20004;-90
2022/09/22 08:43:57;;;;;;;;;;;12.80;64.80;;;;;;5000849;28;19953;-90
2022/09/22 08:46:39;;;;;;;;;;;12.80;64.80;;;;;;5017278;28;19921;-92
2022/09/22 08:52:14;;;;;;;;;;;12.80;64.80;;;;;;5018843;28;19913;-94
2022/09/22 08:54:40;;;;;;;;;;;12.90;64.90;;;;;;5017491;28;19913;-93
2022/09/22 08:57:12;;;;;;;;;;;13.00;65.00;;;;;;5016815;28;20334;-94
2022/09/22 08:59:58;;;;;;;;;;;13.00;64.90;;;;;;5017459;28;19957;-89
2022/09/22 09:02:31;;;;;;;;;;;13.00;64.90;;;;;;5015560;28;19917;-89
2022/09/22 09:05:00;;;;;;;;;;;13.10;64.90;;;;;;5016305;28;19984;-89
2022/09/22 09:07:25;;;;;;;;;;;13.20;64.80;;;;;;5016394;28;19909;-87
2022/09/22 09:09:57;;;;;;;;;;;13.30;64.80;;;;;;5016756;28;19916;-87
2022/09/22 09:12:41;;;;;;;;;;;13.30;64.70;;;;;;5015898;28;19920;-89
2022/09/22 09:15:16;;;;;;;;;;;13.40;64.70;;;;;;4999559;28;19928;-91
2022/09/22 09:17:43;;;;;;;;;;;13.50;64.60;;;;;;5016034;28;19920;-88
2022/09/22 09:20:18;;;;;;;;;;;13.50;64.50;;;;;;5015781;28;19933;-89
2022/09/22 09:22:54;;;;;;;;;;;13.60;64.40;;;;;;5016085;28;20020;-90
2022/09/22 09:25:39;;;;;;;;;;;13.70;64.30;;;;;;5017013;28;19976;-89
2022/09/22 09:28:17;;;;;;;;;;;13.80;64.30;;;;;;5000506;28;19936;-90
2022/09/22 09:30:44;;;;;;;;;;;13.90;64.20;;;;;;5018710;28;19916;-91
2022/09/22 09:33:16;;;;;;;;;;;14.00;64.20;;;;;;5017270;28;19910;-90
2022/09/22 09:35:50;;;;;;;;;;;14.10;64.10;;;;;;5017582;28;19971;-90
2022/09/22 09:38:17;;;;;;;;;;;14.10;64.10;;;;;;5015941;28;20006;-91
2022/09/22 09:40:44;;;;;;;;;;;14.20;64.00;;;;;;5015512;28;19906;-89
2022/09/22 09:43:10;;;;;;;;;;;14.40;64.10;;;;;;5015295;28;19917;-88
2022/09/22 09:45:43;;;;;;;;;;;14.40;64.00;;;;;;5014948;28;19975;-89
2022/09/22 09:48:12;;;;;;;;;;;14.50;64.00;;;;;;5015174;28;19960;-88
2022/09/22 09:50:38;;;;;;;;;;;14.60;64.00;;;;;;5015629;28;19981;-87
2022/09/22 09:53:04;;;;;;;;;;;14.70;64.00;;;;;;4999468;28;19968;-91
2022/09/22 09:55:32;;;;;;;;;;;14.80;64.00;;;;;;5014909;28;19976;-91
2022/09/22 09:58:03;;;;;;;;;;;14.90;63.90;;;;;;4999066;28;20366;-91
2022/09/22 10:00:31;;;;;;;;;;;15.00;63.90;;;;;;5015647;28;19925;-89
2022/09/22 10:03:22;;;;;;;;;;;15.10;63.90;;;;;;5015977;28;19910;-86
2022/09/22 10:05:57;;;;;;;;;;;15.30;64.00;;;;;;5014999;28;19948;-90
2022/09/22 10:08:23;;;;;;;;;;;15.30;63.90;;;;;;5014947;28;19921;-88
2022/09/22 10:10:54;;;;;;;;;;;15.40;64.00;;;;;;5014192;28;19960;-89
2022/09/22 10:13:22;;;;;;;;;;;15.60;64.10;;;;;;4998198;28;19913;-88
2022/09/22 10:16:02;;;;;;;;;;;15.60;64.10;;;;;;5014358;28;19953;-86
2022/09/22 10:18:27;;;;;;;;;;;15.80;64.20;;;;;;5014588;28;19913;-85
2022/09/22 10:21:02;;;;;;;;;;;15.90;64.20;;;;;;4998055;28;19913;-87
2022/09/22 10:23:31;;;;;;;;;;;16.00;64.30;;;;;;5014146;28;19921;-85
2022/09/22 10:26:13;;;;;;;;;;;16.10;64.40;;;;;;4998431;28;19913;-85
2022/09/22 10:28:39;;;;;;;;;;;16.20;64.40;;;;;;5013916;28;19913;-85
2022/09/22 10:31:05;;;;;;;;;;;16.30;64.50;;;;;;5013646;28;20008;-86
2022/09/22 10:33:31;;;;;;;;;;;16.40;64.50;;;;;;4997504;28;19939;-82
2022/09/22 10:36:10;;;;;;;;;;;16.50;64.60;;;;;;4996855;28;19917;-84
2022/09/22 10:38:40;;;;;;;;;;;16.60;64.60;;;;;;5012912;28;19944;-83
2022/09/22 10:41:13;;;;;;;;;;;16.70;64.70;;;;;;5013087;28;20342;-83
2022/09/22 10:43:52;;;;;;;;;;;16.80;64.70;;;;;;5014487;28;19914;-82
2022/09/22 10:46:31;;;;;;;;;;;16.90;64.70;;;;;;5014932;28;19913;-84
2022/09/22 10:49:15;;;;;;;;;;;17.00;64.70;;;;;;5014918;28;20009;-83
2022/09/22 10:52:00;;;;;;;;;;;17.10;64.80;;;;;;5013281;28;19992;-82
2022/09/22 10:54:44;;;;;;;;;;;17.20;64.80;;;;;;5014016;28;19964;-83
2022/09/22 10:57:16;;;;;;;;;;;17.30;65.00;;;;;;5013684;28;20000;-84
2022/09/22 10:59:57;;;;;;;;;;;17.40;65.00;;;;;;5013521;28;19913;-84
2022/09/22 11:02:24;;;;;;;;;;;17.50;65.10;;;;;;5013879;28;20409;-86
2022/09/22 11:05:01;;;;;;;;;;;17.50;65.20;;;;;;5015152;28;19972;-85
2022/09/22 11:13:33;;;;;;;;;;;17.80;65.50;;;;;;5013933;28;19976;-84
2022/09/22 11:15:59;;;;;;;;;;;17.80;65.50;;;;;;4997540;28;20266;-85
2022/09/22 11:18:40;;;;;;;;;;;17.90;65.60;;;;;;5013216;28;19914;-85
2022/09/22 11:21:28;;;;;;;;;;;17.90;65.70;;;;;;5014618;28;20402;-86
2022/09/22 11:24:01;;;;;;;;;;;18.00;65.80;;;;;;5016182;28;20290;-85
2022/09/22 11:26:50;;;;;;;;;;;18.00;65.80;;;;;;5017717;28;20373;-85
2022/09/22 11:29:22;;;;;;;;;;;18.10;66.00;;;;;;4994987;28;19932;-86
2022/09/22 11:31:52;;;;;;;;;;;18.10;66.00;;;;;;5018149;28;19913;-86
2022/09/22 11:34:33;;;;;;;;;;;18.20;66.10;;;;;;5017175;28;19914;-85
2022/09/22 11:37:24;;;;;;;;;;;18.20;66.10;;;;;;5018823;28;19921;-85
2022/09/22 11:39:53;;;;;;;;;;;18.20;66.10;;;;;;5017630;28;19920;-85
2022/09/22 11:42:23;;;;;;;;;;;18.30;66.20;;;;;;5017512;28;19917;-86
2022/09/22 11:44:56;;;;;;;;;;;18.30;66.20;;;;;;5016756;28;19913;-86
2022/09/22 11:47:40;;;;;;;;;;;18.30;66.20;;;;;;5000626;28;20320;-84
2022/09/22 11:50:09;;;;;;;;;;;18.40;66.30;;;;;;5017287;28;19936;-84
2022/09/22 11:52:42;;;;;;;;;;;18.40;66.30;;;;;;5018049;28;20397;-85
2022/09/22 11:55:13;;;;;;;;;;;18.40;66.30;;;;;;5018716;28;20227;-84
2022/09/22 11:57:41;;;;;;;;;;;18.40;66.30;;;;;;5017964;28;20000;-84
2022/09/22 12:00:07;;;;;;;;;;;18.50;66.30;;;;;;5018220;28;19917;-84
2022/09/22 12:02:40;;;;;;;;;;;18.50;67.00;;;;;;5018197;28;20350;-84
2022/09/22 12:05:12;;;;;;;;;;;18.50;66.30;;;;;;5017848;28;19920;-85
2022/09/22 12:07:58;;;;;;;;;;;18.60;66.40;;;;;;5017667;28;20378;-85
2022/09/22 12:10:34;;;;;;;;;;;18.60;66.30;;;;;;5013822;28;20298;-85
2022/09/22 12:13:01;;;;;;;;;;;18.60;66.30;;;;;;5016562;28;19914;-84
2022/09/22 12:15:33;;;;;;;;;;;18.60;66.30;;;;;;5017016;28;19925;-85
2022/09/22 12:18:01;;;;;;;;;;;18.70;66.30;;;;;;5017705;28;20396;-84
2022/09/22 12:20:41;;;;;;;;;;;18.70;66.30;;;;;;5016551;28;19968;-85
2022/09/22 12:23:15;;;;;;;;;;;18.70;66.30;;;;;;5016486;28;19913;-85
2022/09/22 12:25:46;;;;;;;;;;;18.80;66.30;;;;;;5017891;28;19913;-85
2022/09/22 12:28:17;;;;;;;;;;;18.80;66.30;;;;;;5019276;28;19913;-85
2022/09/22 12:30:58;;;;;;;;;;;18.80;66.30;;;;;;5019340;28;19914;-85
2022/09/22 12:33:24;;;;;;;;;;;18.90;66.30;;;;;;5018199;28;19917;-84
2022/09/22 12:35:52;;;;;;;;;;;18.90;66.20;;;;;;5019607;28;19918;-85
2022/09/22 12:38:19;;;;;;;;;;;18.90;66.20;;;;;;5016417;28;20413;-85
2022/09/22 12:40:47;;;;;;;;;;;18.90;66.20;;;;;;5017190;28;19910;-84
2022/09/22 12:43:16;;;;;;;;;;;18.90;66.10;;;;;;5016976;28;19917;-84
2022/09/22 12:45:42;;;;;;;;;;;19.00;66.10;;;;;;5016027;28;20004;-86
2022/09/22 12:48:21;;;;;;;;;;;19.00;66.00;;;;;;4999954;28;20008;-85
2022/09/22 12:50:48;;;;;;;;;;;19.00;66.00;;;;;;5016063;28;19914;-85
2022/09/22 12:53:20;;;;;;;;;;;19.00;65.90;;;;;;4999953;28;19957;-85
2022/09/22 12:55:47;;;;;;;;;;;19.10;66.00;;;;;;5015667;28;20438;-85
2022/09/22 12:58:19;;;;;;;;;;;19.10;65.90;;;;;;5015734;28;20330;-85
2022/09/22 13:00:45;;;;;;;;;;;19.10;65.90;;;;;;5017017;28;19975;-85
2022/09/22 13:03:26;;;;;;;;;;;19.10;65.90;;;;;;5018792;28;20043;-85
2022/09/22 13:05:52;;;;;;;;;;;19.10;65.90;;;;;;5017791;28;20262;-85
2022/09/22 13:08:23;;;;;;;;;;;19.10;66.50;;;;;;5016188;28;19961;-85
2022/09/22 13:10:51;;;;;;;;;;;19.20;66.50;;;;;;5015970;28;20358;-86
2022/09/22 13:13:21;;;;;;;;;;;19.20;65.80;;;;;;5015579;28;19910;-85
2022/09/22 13:15:48;;;;;;;;;;;19.20;65.70;;;;;;4998915;28;20012;-85
2022/09/22 13:18:32;;;;;;;;;;;19.20;65.60;;;;;;4999307;28;20003;-85
2022/09/22 13:20:59;;;;;;;;;;;19.20;65.60;;;;;;5015715;28;20402;-85
2022/09/22 13:23:25;;;;;;;;;;;19.20;65.60;;;;;;5015369;28;19913;-85
2022/09/22 13:25:51;;;;;;;;;;;19.30;65.50;;;;;;4998993;28;20374;-85
2022/09/22 13:28:18;;;;;;;;;;;19.30;65.50;;;;;;5015385;28;19910;-85
2022/09/22 13:30:58;;;;;;;;;;;19.40;65.50;;;;;;5015003;28;20263;-85
2022/09/22 13:33:25;;;;;;;;;;;19.30;65.30;;;;;;5014766;28;19917;-85
2022/09/22 13:35:54;;;;;;;;;;;19.40;65.30;;;;;;5015117;28;19999;-85
2022/09/22 13:38:20;;;;;;;;;;;19.40;65.20;;;;;;5015211;28;19968;-85
2022/09/22 13:40:47;;;;;;;;;;;19.40;65.20;;;;;;5015308;28;19910;-85
2022/09/22 13:43:19;;;;;;;;;;;19.40;65.10;;;;;;5015810;28;19914;-85
2022/09/22 13:45:45;;;;;;;;;;;19.50;65.10;;;;;;5014076;28;19917;-84
2022/09/22 13:48:14;;;;;;;;;;;19.40;65.10;;;;;;5016070;28;20400;-85
2022/09/22 13:50:44;;;;;;;;;;;19.50;65.10;;;;;;5015400;28;19988;-85
2022/09/22 13:53:14;;;;;;;;;;;19.50;65.00;;;;;;4998190;28;19936;-85
2022/09/22 13:55:39;;;;;;;;;;;19.50;64.90;;;;;;5014263;28;19917;-85
2022/09/22 13:58:07;;;;;;;;;;;19.60;64.90;;;;;;4998219;28;19917;-85
2022/09/22 14:00:41;;;;;;;;;;;19.60;64.90;;;;;;5015708;28;19913;-84
2022/09/22 14:03:14;;;;;;;;;;;19.60;64.80;;;;;;5016218;28;19913;-85
2022/09/22 14:05:40;;;;;;;;;;;19.60;64.80;;;;;;4998082;28;19920;-85
2022/09/22 14:08:09;;;;;;;;;;;19.60;64.80;;;;;;5016082;28;20007;-84
2022/09/22 14:10:36;;;;;;;;;;;19.70;64.80;;;;;;5014390;28;19960;-85
2022/09/22 14:13:02;;;;;;;;;;;19.60;64.70;;;;;;5014506;28;20370;-84
2022/09/22 14:15:31;;;;;;;;;;;19.70;64.70;;;;;;5014263;28;19972;-85
2022/09/22 14:17:57;;;;;;;;;;;19.70;64.70;;;;;;5014502;28;19917;-85
2022/09/22 14:20:23;;;;;;;;;;;19.70;64.70;;;;;;5014544;28;19914;-85
2022/09/22 14:22:49;;;;;;;;;;;19.70;64.60;;;;;;5014082;28;19920;-85
2022/09/22 14:25:20;;;;;;;;;;;19.70;64.60;;;;;;5014013;28;20370;-85
2022/09/22 14:27:52;;;;;;;;;;;19.70;64.60;;;;;;5015340;28;19917;-84
2022/09/22 14:30:18;;;;;;;;;;;19.70;64.60;;;;;;5014198;28;19921;-84
2022/09/22 14:32:49;;;;;;;;;;;19.70;64.50;;;;;;5013810;28;19914;-85
2022/09/22 14:35:25;;;;;;;;;;;19.70;64.50;;;;;;5014076;28;19921;-85
2022/09/22 14:37:51;;;;;;;;;;;19.70;64.40;;;;;;5015075;28;19913;-84
2022/09/22 14:40:21;;;;;;;;;;;19.70;64.40;;;;;;5013724;28;19909;-84